createdAt,value
2019-02-04T00:00:38.959Z,6.77
2019-02-04T00:03:10.594Z,6.40
2019-02-04T00:05:39.198Z,7.47
2019-02-04T00:08:08.146Z,6.40
2019-02-04T00:10:36.777Z,5.93
2019-02-04T00:13:07.209Z,8.30
2019-02-04T00:15:35.986Z,7.40
2019-02-04T00:18:06.701Z,6.20
2019-02-04T00:20:35.322Z,6.73
2019-02-04T00:23:03.959Z,7.40
2019-02-04T00:25:35.273Z,7.13
2019-02-04T00:28:03.872Z,8.00
2019-02-04T00:30:34.081Z,7.30
2019-02-04T00:33:05.364Z,6.20
2019-02-04T00:35:33.968Z,7.30
2019-02-04T00:38:05.884Z,8.20
2019-02-04T00:40:34.526Z,6.63
2019-02-04T00:43:03.075Z,7.87
2019-02-04T00:45:33.676Z,7.00
2019-02-04T00:48:02.240Z,7.17
2019-02-04T00:50:30.798Z,7.67
2019-02-04T00:53:00.718Z,8.60
2019-02-04T00:55:29.232Z,7.60
2019-02-04T00:57:57.984Z,8.60
2019-02-04T01:00:31.231Z,8.37
2019-02-04T01:03:03.171Z,7.60
2019-02-04T01:05:33.691Z,7.73
2019-02-04T01:08:05.877Z,7.17
2019-02-04T01:10:34.540Z,7.62
2019-02-04T01:13:03.222Z,8.40
2019-02-04T01:15:34.592Z,8.23
2019-02-04T01:18:03.611Z,7.12
2019-02-04T01:20:32.317Z,7.50
2019-02-04T01:23:03.602Z,8.00
2019-02-04T01:25:32.343Z,8.10
2019-02-04T01:28:01.302Z,7.50
2019-02-04T01:30:32.336Z,8.10
2019-02-04T01:33:01.006Z,8.63
2019-02-04T01:35:31.672Z,7.42
2019-02-04T01:38:00.770Z,7.30
2019-02-04T01:40:29.859Z,9.47
2019-02-04T01:42:58.376Z,9.60
2019-02-04T01:45:26.979Z,8.15
2019-02-04T01:47:55.541Z,10.00
2019-02-04T01:50:24.673Z,8.13
2019-02-04T01:52:53.471Z,8.28
2019-02-04T01:55:22.546Z,9.20
2019-02-04T01:57:53.849Z,9.68
2019-02-04T02:00:25.360Z,8.43
2019-02-04T02:02:54.404Z,9.10
2019-02-04T02:05:23.144Z,8.37
2019-02-04T02:07:51.881Z,7.75
2019-02-04T02:10:23.185Z,9.10
2019-02-04T02:12:52.388Z,7.63
2019-02-04T02:15:23.846Z,9.23
2019-02-04T02:17:52.512Z,8.53
2019-02-04T02:20:23.626Z,8.97
2019-02-04T02:22:52.301Z,10.10
2019-02-04T02:25:21.104Z,9.50
2019-02-04T02:27:49.701Z,9.50
2019-02-04T02:30:39.070Z,10.40
2019-02-04T02:33:07.659Z,9.83
2019-02-04T02:35:39.062Z,10.10
2019-02-04T02:38:07.626Z,11.40
2019-02-04T02:40:36.357Z,10.37
2019-02-04T02:43:05.793Z,10.87
2019-02-04T02:45:34.358Z,12.17
2019-02-04T02:48:03.350Z,10.78
2019-02-04T02:50:34.869Z,12.88
2019-02-04T02:53:03.447Z,10.95
2019-02-04T02:55:32.110Z,12.70
2019-02-04T02:58:02.410Z,12.00
2019-02-04T03:00:33.824Z,12.70
2019-02-04T03:03:03.938Z,11.48
2019-02-04T03:05:38.272Z,14.25
2019-02-04T03:08:06.882Z,13.30
2019-02-04T03:10:35.526Z,12.50
2019-02-04T03:13:04.204Z,14.07
2019-02-04T03:15:32.848Z,13.60
2019-02-04T03:18:04.729Z,14.73
2019-02-04T03:20:33.499Z,11.80
2019-02-04T03:23:04.829Z,13.37
2019-02-04T03:25:33.424Z,14.00
2019-02-04T03:28:05.493Z,11.93
2019-02-04T03:30:36.858Z,13.50
2019-02-04T03:33:05.488Z,11.73
2019-02-04T03:35:34.721Z,13.50
2019-02-04T03:38:03.287Z,12.65
2019-02-04T03:40:33.376Z,12.45
2019-02-04T03:43:04.695Z,14.87
2019-02-04T03:45:36.707Z,13.80
2019-02-04T03:48:09.423Z,13.88
2019-02-04T03:50:39.023Z,14.93
2019-02-04T03:53:07.634Z,14.17
2019-02-04T03:55:39.184Z,14.35
2019-02-04T03:58:08.175Z,13.45
2019-02-04T04:00:37.120Z,13.00
2019-02-04T04:03:09.018Z,15.20
2019-02-04T04:05:37.588Z,15.33
2019-02-04T04:08:06.208Z,14.53
2019-02-04T04:10:37.556Z,13.20
2019-02-04T04:13:06.588Z,13.45
2019-02-04T04:15:38.204Z,14.25
2019-02-04T04:18:15.574Z,12.83
2019-02-04T04:20:39.867Z,13.30
2019-02-04T04:23:11.255Z,14.47
2019-02-04T04:25:39.849Z,13.97
2019-02-04T04:28:08.410Z,12.10
2019-02-04T04:30:40.344Z,15.13
2019-02-04T04:33:09.230Z,14.37
2019-02-04T04:35:40.950Z,13.87
2019-02-04T04:38:12.685Z,11.83
2019-02-04T04:40:41.632Z,13.10
2019-02-04T04:43:10.246Z,12.40
2019-02-04T04:45:42.122Z,13.80
2019-02-04T04:48:10.735Z,13.90
2019-02-04T04:50:39.307Z,13.07
2019-02-04T04:53:10.939Z,14.57
2019-02-04T04:55:42.591Z,11.10
2019-02-04T04:58:11.190Z,13.90
2019-02-04T05:00:39.750Z,13.43
2019-02-04T05:03:08.355Z,13.67
2019-02-04T05:05:37.263Z,13.37
2019-02-04T05:08:08.973Z,13.20
2019-02-04T05:10:37.651Z,13.37
2019-02-04T05:13:09.009Z,12.83
2019-02-04T05:15:41.245Z,11.13
2019-02-04T05:18:10.698Z,12.80
2019-02-04T05:20:42.195Z,11.93
2019-02-04T05:23:10.764Z,11.07
2019-02-04T05:25:39.557Z,13.30
2019-02-04T05:28:08.151Z,13.33
2019-02-04T05:30:39.762Z,13.10
2019-02-04T05:33:08.318Z,11.70
2019-02-04T05:35:36.920Z,13.67
2019-02-04T05:38:05.470Z,13.20
2019-02-04T05:40:34.494Z,10.95
2019-02-04T05:43:03.100Z,14.37
2019-02-04T05:45:34.674Z,13.77
2019-02-04T05:48:03.380Z,12.53
2019-02-04T05:50:35.259Z,12.93
2019-02-04T05:53:04.266Z,13.50
2019-02-04T05:55:35.548Z,11.50
2019-02-04T05:58:07.292Z,13.10
2019-02-04T06:00:37.563Z,13.53
2019-02-04T06:03:06.315Z,12.90
2019-02-04T06:05:35.016Z,12.10
2019-02-04T06:08:03.685Z,12.20
2019-02-04T06:10:32.319Z,11.50
2019-02-04T06:13:00.992Z,11.87
2019-02-04T06:15:29.732Z,15.43
2019-02-04T06:17:58.294Z,14.63
2019-02-04T06:20:31.612Z,13.47
2019-02-04T06:23:02.435Z,13.40
2019-02-04T06:25:31.362Z,12.00
2019-02-04T06:28:00.344Z,15.20
2019-02-04T06:30:33.204Z,11.43
2019-02-04T06:33:04.659Z,11.73
2019-02-04T06:35:33.335Z,14.37
2019-02-04T06:38:04.817Z,13.67
2019-02-04T06:40:33.475Z,12.77
2019-02-04T06:43:04.883Z,13.77
2019-02-04T06:45:33.527Z,13.73
2019-02-04T06:48:02.196Z,13.17
2019-02-04T06:50:31.164Z,13.00
2019-02-04T06:53:01.545Z,14.10
2019-02-04T06:55:32.800Z,15.23
2019-02-04T06:58:02.221Z,12.50
2019-02-04T07:00:30.983Z,13.27
2019-02-04T07:03:02.993Z,12.60
2019-02-04T07:05:43.523Z,12.40
2019-02-04T07:08:08.417Z,14.07
2019-02-04T07:10:39.971Z,12.10
2019-02-04T07:13:11.308Z,12.63
2019-02-04T07:15:40.193Z,11.83
2019-02-04T07:18:08.887Z,13.43
2019-02-04T07:20:37.456Z,11.73
2019-02-04T07:23:08.709Z,14.00
2019-02-04T07:25:37.267Z,12.50
2019-02-04T07:28:08.530Z,14.53
2019-02-04T07:30:40.178Z,12.33
2019-02-04T07:33:08.936Z,13.93
2019-02-04T07:35:37.635Z,13.93
2019-02-04T07:38:09.484Z,13.00
2019-02-04T07:40:40.883Z,13.70
2019-02-04T07:43:12.236Z,12.10
2019-02-04T07:45:43.270Z,12.20
2019-02-04T07:48:11.873Z,11.03
2019-02-04T07:50:40.534Z,10.13
2019-02-04T07:53:09.141Z,12.23
2019-02-04T07:55:40.539Z,12.23
2019-02-04T07:58:12.157Z,13.47
2019-02-04T08:00:40.860Z,11.70
2019-02-04T08:03:14.965Z,13.20
2019-02-04T08:05:45.258Z,33.07
2019-02-04T08:08:13.895Z,17.27
2019-02-04T08:10:42.984Z,13.47
2019-02-04T08:13:14.172Z,12.67
2019-02-04T08:15:42.782Z,14.00
2019-02-04T08:18:14.530Z,12.77
2019-02-04T08:20:43.822Z,11.50
2019-02-04T08:23:15.357Z,12.97
2019-02-04T08:25:43.938Z,13.63
2019-02-04T08:28:15.364Z,13.90
2019-02-04T08:30:46.876Z,11.93
2019-02-04T08:33:15.494Z,12.70
2019-02-04T08:35:47.195Z,12.87
2019-02-04T08:38:18.810Z,13.00
2019-02-04T08:40:50.747Z,14.73
2019-02-04T08:43:19.379Z,14.30
2019-02-04T08:45:47.940Z,13.50
2019-02-04T08:48:19.210Z,15.47
2019-02-04T08:50:48.186Z,12.50
2019-02-04T08:53:20.025Z,12.97
2019-02-04T08:55:51.310Z,14.73
2019-02-04T08:58:19.924Z,13.97
2019-02-04T09:00:51.215Z,12.57
2019-02-04T09:03:19.766Z,14.60
2019-02-04T09:05:51.218Z,15.20
2019-02-04T09:08:19.777Z,12.27
2019-02-04T09:10:51.436Z,12.20
2019-02-04T09:13:22.708Z,13.27
2019-02-04T09:15:54.003Z,11.53
2019-02-04T09:18:25.894Z,12.17
2019-02-04T09:20:55.043Z,13.93
2019-02-04T09:23:26.524Z,13.77
2019-02-04T09:25:57.875Z,11.57
2019-02-04T09:28:30.729Z,12.33
2019-02-04T09:31:04.836Z,14.03
2019-02-04T09:33:33.679Z,11.50
2019-02-04T09:36:02.235Z,10.90
2019-02-04T09:38:33.767Z,10.80
2019-02-04T09:41:05.539Z,12.60
2019-02-04T09:43:34.134Z,10.80
2019-02-04T09:46:08.511Z,10.00
2019-02-04T09:48:37.168Z,13.40
2019-02-04T09:51:05.750Z,10.23
2019-02-04T09:53:34.308Z,10.63
2019-02-04T09:56:06.162Z,10.80
2019-02-04T09:58:37.650Z,10.73
2019-02-04T10:01:08.978Z,11.50
2019-02-04T10:03:40.624Z,10.77
2019-02-04T10:06:12.396Z,9.60
2019-02-04T10:08:41.310Z,10.03
2019-02-04T10:11:09.978Z,10.30
2019-02-04T10:13:41.442Z,8.43
2019-02-04T10:16:13.198Z,8.37
2019-02-04T10:18:41.786Z,8.00
2019-02-04T10:21:10.635Z,7.63
2019-02-04T10:23:39.244Z,9.17
2019-02-04T10:26:07.957Z,9.03
2019-02-04T10:28:39.806Z,7.40
2019-02-04T10:31:11.276Z,7.57
2019-02-04T10:33:42.789Z,7.20
2019-02-04T10:36:14.464Z,6.47
2019-02-04T10:38:43.013Z,6.70
2019-02-04T10:41:11.567Z,7.37
2019-02-04T10:43:42.960Z,7.33
2019-02-04T10:46:11.572Z,6.30
2019-02-04T10:48:40.852Z,5.80
2019-02-04T10:51:12.473Z,5.97
2019-02-04T10:53:44.278Z,6.50
2019-02-04T10:56:16.438Z,6.20
2019-02-04T10:58:48.050Z,6.40
2019-02-04T11:01:19.716Z,7.07
2019-02-04T11:03:48.389Z,5.80
2019-02-04T11:06:19.738Z,5.60
2019-02-04T11:08:51.684Z,4.97
2019-02-04T11:11:23.256Z,5.27
2019-02-04T11:13:54.883Z,5.60
2019-02-04T11:16:23.529Z,4.30
2019-02-04T11:18:55.198Z,4.67
2019-02-04T11:21:24.214Z,4.50
2019-02-04T11:23:56.013Z,5.20
2019-02-04T11:26:24.665Z,4.43
2019-02-04T11:28:55.870Z,3.90
2019-02-04T11:31:27.299Z,3.63
2019-02-04T11:33:58.903Z,3.50
2019-02-04T11:36:27.507Z,3.37
2019-02-04T11:38:58.874Z,3.30
2019-02-04T11:41:32.329Z,3.00
2019-02-04T11:44:03.597Z,2.73
2019-02-04T11:46:32.864Z,3.00
2019-02-04T11:49:01.370Z,2.93
2019-02-04T11:51:31.972Z,3.10
2019-02-04T11:54:02.648Z,2.57
2019-02-04T11:56:34.253Z,2.60
2019-02-04T11:59:02.811Z,2.70
2019-02-04T12:01:34.838Z,3.43
2019-02-04T12:04:06.532Z,2.83
2019-02-04T12:06:38.267Z,2.10
2019-02-04T12:09:08.701Z,2.20
2019-02-04T12:11:37.295Z,2.93
2019-02-04T12:14:09.202Z,2.40
2019-02-04T12:16:40.465Z,2.03
2019-02-04T12:19:09.411Z,2.63
2019-02-04T12:21:38.848Z,2.30
2019-02-04T12:24:10.799Z,3.87
2019-02-04T12:26:39.357Z,2.93
2019-02-04T12:29:10.647Z,2.30
2019-02-04T12:31:42.284Z,2.30
2019-02-04T12:34:10.876Z,2.40
2019-02-04T12:36:42.446Z,2.60
2019-02-04T12:39:19.071Z,2.50
2019-02-04T12:41:50.894Z,2.40
2019-02-04T12:44:19.658Z,1.97
2019-02-04T12:46:51.447Z,2.10
2019-02-04T12:49:20.204Z,1.97
2019-02-04T12:51:48.862Z,2.30
2019-02-04T12:54:21.245Z,2.20
2019-02-04T12:56:49.797Z,1.70
2019-02-04T12:59:21.293Z,2.33
2019-02-04T13:01:50.033Z,2.40
2019-02-04T13:04:21.812Z,1.93
2019-02-04T13:06:53.347Z,1.80
2019-02-04T13:09:24.605Z,2.30
2019-02-04T13:11:55.949Z,2.53
2019-02-04T13:14:24.830Z,2.30
2019-02-04T13:16:54.279Z,1.60
2019-02-04T13:19:22.869Z,1.83
2019-02-04T13:21:54.471Z,2.00
2019-02-04T13:24:25.841Z,2.50
2019-02-04T13:26:57.434Z,2.20
2019-02-04T13:29:27.011Z,1.90
2019-02-04T13:31:58.246Z,1.90
2019-02-04T13:34:31.601Z,2.53
2019-02-04T13:37:03.101Z,2.50
2019-02-04T13:39:34.488Z,2.20
2019-02-04T13:42:03.182Z,2.20
2019-02-04T13:44:34.863Z,2.57
2019-02-04T13:47:07.453Z,3.30
2019-02-04T13:49:36.011Z,2.60
2019-02-04T13:52:07.675Z,3.87
2019-02-04T13:54:36.249Z,3.00
2019-02-04T13:57:07.915Z,3.33
2019-02-04T13:59:36.809Z,2.93
2019-02-04T14:02:08.256Z,3.17
2019-02-04T14:04:36.879Z,2.93
2019-02-04T14:07:05.516Z,4.50
2019-02-04T14:09:37.164Z,3.67
2019-02-04T14:12:06.073Z,4.30
2019-02-04T14:14:34.989Z,4.03
2019-02-04T14:17:04.676Z,3.93
2019-02-04T14:19:33.233Z,4.47
2019-02-04T14:22:09.353Z,4.43
2019-02-04T14:24:33.757Z,5.40
2019-02-04T14:27:05.344Z,4.50
2019-02-04T14:29:33.963Z,3.87
2019-02-04T14:32:08.422Z,5.00
2019-02-04T14:34:36.999Z,5.80
2019-02-04T14:37:05.713Z,5.77
2019-02-04T14:39:34.347Z,5.90
2019-02-04T14:42:03.603Z,5.77
2019-02-04T14:44:33.808Z,5.83
2019-02-04T14:47:08.550Z,6.13
2019-02-04T14:49:52.099Z,6.20
2019-02-04T14:52:32.690Z,8.07
2019-02-04T14:55:25.771Z,7.20
2019-02-04T14:58:22.320Z,7.57
2019-02-04T15:01:27.245Z,8.00
2019-02-04T15:04:20.699Z,8.90
2019-02-04T15:07:10.057Z,7.20
2019-02-04T15:09:55.771Z,7.30
2019-02-04T15:13:01.308Z,7.27
2019-02-04T15:15:47.915Z,7.47
2019-02-04T15:18:46.767Z,7.67
2019-02-04T15:21:39.569Z,8.40
2019-02-04T15:24:15.599Z,9.07
2019-02-04T15:26:56.177Z,8.43
2019-02-04T15:29:34.028Z,10.95
2019-02-04T15:32:17.346Z,10.00
2019-02-04T15:35:03.803Z,8.97
2019-02-04T15:37:44.997Z,8.93
2019-02-04T15:40:19.445Z,10.80
2019-02-04T15:43:18.371Z,10.17
2019-02-04T15:46:08.296Z,8.10
2019-02-04T15:48:42.575Z,9.43
2019-02-04T15:51:14.233Z,9.33
2019-02-04T15:53:42.895Z,9.50
2019-02-04T15:56:11.863Z,10.77
2019-02-04T15:58:40.446Z,11.53
2019-02-04T16:01:09.077Z,10.20
2019-02-04T16:03:37.628Z,11.43
2019-02-04T16:06:09.284Z,11.07
2019-02-04T16:08:37.839Z,11.60
2019-02-04T16:11:06.825Z,10.47
2019-02-04T16:13:38.400Z,13.23
2019-02-04T16:16:07.420Z,11.33
2019-02-04T16:18:36.110Z,12.40
2019-02-04T16:21:04.909Z,11.47
2019-02-04T16:23:33.560Z,11.87
2019-02-04T16:26:06.222Z,13.33
2019-02-04T16:28:34.775Z,12.47
2019-02-04T16:31:03.353Z,13.50
2019-02-04T16:33:35.247Z,12.37
2019-02-04T16:36:04.013Z,11.87
2019-02-04T16:38:35.844Z,13.80
2019-02-04T16:41:04.572Z,14.33
2019-02-04T16:43:33.589Z,14.00
2019-02-04T16:46:02.501Z,14.40
2019-02-04T16:48:31.135Z,12.93
2019-02-04T16:51:11.362Z,13.97
2019-02-04T16:53:32.351Z,14.70
2019-02-04T16:56:00.935Z,15.97
2019-02-04T16:58:31.329Z,14.33
2019-02-04T17:01:02.303Z,13.30
2019-02-04T17:03:30.919Z,15.63
2019-02-04T17:06:01.525Z,15.23
2019-02-04T17:08:31.670Z,15.77
2019-02-04T17:11:01.496Z,14.97
2019-02-04T17:13:32.104Z,15.27
2019-02-04T17:16:02.298Z,13.73
2019-02-04T17:18:30.956Z,14.20
2019-02-04T17:20:59.640Z,15.27
2019-02-04T17:23:28.666Z,14.50
2019-02-04T17:25:59.663Z,15.47
2019-02-04T17:28:27.569Z,14.93
2019-02-04T17:30:56.585Z,14.63
2019-02-04T17:33:25.191Z,14.07
2019-02-04T17:35:53.732Z,15.07
2019-02-04T17:38:23.077Z,16.13
2019-02-04T17:40:51.638Z,15.17
2019-02-04T17:43:22.894Z,15.60
2019-02-04T17:45:51.523Z,15.50
2019-02-04T17:48:20.368Z,14.30
2019-02-04T17:50:48.885Z,13.70
2019-02-04T17:53:20.722Z,14.17
2019-02-04T17:55:49.351Z,16.80
2019-02-04T17:58:17.957Z,14.80
2019-02-04T18:00:50.915Z,15.60
2019-02-04T18:03:19.629Z,14.30
2019-02-04T18:05:48.195Z,15.37
2019-02-04T18:08:16.924Z,15.10
2019-02-04T18:10:45.966Z,14.87
2019-02-04T18:13:15.045Z,17.40
2019-02-04T18:15:43.687Z,17.60
2019-02-04T18:18:12.347Z,15.37
2019-02-04T18:20:40.911Z,13.60
2019-02-04T18:23:11.353Z,15.50
2019-02-04T18:25:40.179Z,14.00
2019-02-04T18:28:08.930Z,16.07
2019-02-04T18:30:38.184Z,13.93
2019-02-04T18:33:06.874Z,15.32
2019-02-04T18:35:35.881Z,14.70
2019-02-04T18:38:04.877Z,14.20
2019-02-04T18:40:33.524Z,14.27
2019-02-04T18:43:02.112Z,14.07
2019-02-04T18:45:36.629Z,16.60
2019-02-04T18:48:06.459Z,14.87
2019-02-04T18:50:35.463Z,14.60
2019-02-04T18:53:05.084Z,14.93
2019-02-04T18:55:34.385Z,15.67
2019-02-04T18:58:03.405Z,14.00
2019-02-04T19:00:33.512Z,12.87
2019-02-04T19:03:16.518Z,13.23
2019-02-04T19:05:36.159Z,13.03
2019-02-04T19:08:05.383Z,12.82
2019-02-04T19:10:34.017Z,12.97
2019-02-04T19:13:06.161Z,12.23
2019-02-04T19:15:35.494Z,11.87
2019-02-04T19:18:07.587Z,13.03
2019-02-04T19:20:36.563Z,12.70
2019-02-04T19:23:05.800Z,11.77
2019-02-04T19:25:35.177Z,13.50
2019-02-04T19:28:05.360Z,12.37
2019-02-04T19:30:46.502Z,12.25
2019-02-04T19:33:17.155Z,12.20
2019-02-04T19:35:46.951Z,13.70
2019-02-04T19:38:16.160Z,13.90
2019-02-04T19:40:46.203Z,10.63
2019-02-04T19:43:16.600Z,12.17
2019-02-04T19:45:45.858Z,13.47
2019-02-04T19:48:15.259Z,11.87
2019-02-04T19:50:44.666Z,11.90
2019-02-04T19:53:13.758Z,11.48
2019-02-04T19:55:42.343Z,11.70
2019-02-04T19:58:11.263Z,12.70
2019-02-04T20:00:39.924Z,12.90
2019-02-04T20:03:08.545Z,12.63
2019-02-04T20:05:37.585Z,12.33
2019-02-04T20:08:06.787Z,11.53
2019-02-04T20:10:35.547Z,13.50
2019-02-04T20:13:05.518Z,11.37
2019-02-04T20:15:34.473Z,11.83
2019-02-04T20:18:03.376Z,10.65
2019-02-04T20:20:32.908Z,10.60
2019-02-04T20:23:02.261Z,11.30
2019-02-04T20:25:35.793Z,9.97
2019-02-04T20:28:07.370Z,9.68
2019-02-04T20:30:45.827Z,11.50
2019-02-04T20:33:10.731Z,10.38
2019-02-04T20:35:39.361Z,9.87
2019-02-04T20:38:09.319Z,10.30
2019-02-04T20:40:38.849Z,9.07
2019-02-04T20:43:10.070Z,10.63
2019-02-04T20:45:39.342Z,10.70
2019-02-04T20:48:13.617Z,9.73
2019-02-04T20:50:50.387Z,10.30
2019-02-04T20:53:20.007Z,9.43
2019-02-04T20:55:50.681Z,10.50
2019-02-04T20:58:20.405Z,7.65
2019-02-04T21:00:49.785Z,10.33
2019-02-04T21:03:18.897Z,7.65
2019-02-04T21:05:48.264Z,8.80
2019-02-04T21:08:17.462Z,9.60
2019-02-04T21:10:46.734Z,9.63
2019-02-04T21:13:15.317Z,8.35
2019-02-04T21:15:43.924Z,8.58
2019-02-04T21:18:13.268Z,8.97
2019-02-04T21:20:41.935Z,8.63
2019-02-04T21:23:10.495Z,8.55
2019-02-04T21:25:39.083Z,8.00
2019-02-04T21:28:07.782Z,8.20
2019-02-04T21:30:38.814Z,8.33
2019-02-04T21:33:08.080Z,8.33
2019-02-04T21:35:36.863Z,7.55
2019-02-04T21:38:06.050Z,8.57
2019-02-04T21:40:34.692Z,8.30
2019-02-04T21:43:03.321Z,7.92
2019-02-04T21:45:34.785Z,7.85
2019-02-04T21:48:03.818Z,9.90
2019-02-04T21:50:34.018Z,9.23
2019-02-04T21:53:05.618Z,7.60
2019-02-04T21:55:34.196Z,7.90
2019-02-04T21:58:02.865Z,7.55
2019-02-04T22:00:33.979Z,8.68
2019-02-04T22:03:05.420Z,8.23
2019-02-04T22:05:35.450Z,7.10
2019-02-04T22:08:05.132Z,7.92
2019-02-04T22:10:34.219Z,8.80
2019-02-04T22:13:03.247Z,8.53
2019-02-04T22:15:34.591Z,7.65
2019-02-04T22:18:03.733Z,7.30
2019-02-04T22:20:32.808Z,7.40
2019-02-04T22:23:01.355Z,8.30
2019-02-04T22:25:31.640Z,7.83
2019-02-04T22:28:01.244Z,6.80
2019-02-04T22:30:30.857Z,7.40
2019-02-04T22:32:59.516Z,6.78
2019-02-04T22:35:28.252Z,6.27
2019-02-04T22:37:56.920Z,6.73
2019-02-04T22:40:29.770Z,6.20
2019-02-04T22:42:58.421Z,6.17
2019-02-04T22:45:27.160Z,6.60
2019-02-04T22:47:55.796Z,6.67
2019-02-04T22:50:27.058Z,6.83
2019-02-04T22:52:55.721Z,5.95
2019-02-04T22:55:32.139Z,5.83
2019-02-04T22:57:55.696Z,6.30
2019-02-04T23:00:57.419Z,8.30
2019-02-04T23:03:28.226Z,6.27
2019-02-04T23:05:56.844Z,6.60
2019-02-04T23:08:25.564Z,6.17
2019-02-04T23:10:54.271Z,5.53
2019-02-04T23:13:23.047Z,5.43
2019-02-04T23:15:54.132Z,5.80
2019-02-04T23:18:22.656Z,6.00
2019-02-04T23:20:51.213Z,6.30
2019-02-04T23:23:19.796Z,6.27
2019-02-04T23:25:48.352Z,5.20
2019-02-04T23:28:16.936Z,5.67
2019-02-04T23:30:46.249Z,5.17
2019-02-04T23:33:14.838Z,5.92
2019-02-04T23:35:43.453Z,6.57
2019-02-04T23:38:12.045Z,5.35
2019-02-04T23:40:40.595Z,5.77
2019-02-04T23:43:09.241Z,6.27
2019-02-04T23:45:38.018Z,5.93
2019-02-04T23:48:07.646Z,6.05
2019-02-04T23:50:36.207Z,7.10
2019-02-04T23:53:05.320Z,6.63
2019-02-04T23:55:33.939Z,5.50
2019-02-04T23:58:05.756Z,5.80
